Sand Spring Valley, Nevada Weather observations

Data are for 10 minute period ending at time listed.
 Day   Time   Solar   Ave.   Ave.  Ave.  Vector  Max.   Baro.   Total    
  of    of     Rad.   Air    Rel.  Wind   Wind   Wind  Press.  Precip.   
Year   Day            Temp.  Hum.  Speed  Dir.   Gust                    
2015   (PST)  Kw/m2    F      %     mph   deg.    mph    mb.     in.     
-------------------------------------------------------------------------
 184   15:00   0.00   83.4    31   18.5   255    27.4   851.2    0.00 
 184   15:10   0.00   83.9    31   16.1   263    23.3   851.1    0.00 
 184   15:20   0.00   84.5    29   15.5   260    23.1   851.1    0.00 
 184   15:30   0.00   86.0    28   12.3   249    18.5   851.0    0.00 
 184   15:40   0.00   86.1    27   11.7   249    18.4   850.8    0.00 
 184   15:50   0.00   86.1    28   10.0   240    14.8   850.7    0.00 
 184   16:00   0.00   86.3    26   10.4   242    15.6   850.6    0.00 
 184   16:10   0.00   86.3    26   10.0   252    18.3   850.6    0.00 
 184   16:20   0.00   86.3    24    9.9   270    15.2   850.4    0.00 
 184   16:30   0.00   86.9    26    7.7   241    11.5   850.4    0.00 
 184   16:40   0.00   86.8    27    6.6   239    11.3   850.2    0.00 
 184   16:50   0.00   85.8    29    6.3   248    10.7   850.1    0.00 
 184   17:00   0.00   86.4    29    6.7   234    12.3   850.0    0.00 
 184   17:10   0.00   85.9    29    6.7   224    10.4   850.0    0.00 
 184   17:20   0.00   84.8    29    6.4   232    11.9   850.0    0.00 
 184   17:30   0.00   84.1    28    6.9   244    10.7   850.1    0.00 
 184   17:40   0.00   84.2    26    6.5   243    10.9   850.1    0.00 
 184   17:50   0.00   83.8    28    5.5   248     8.0   850.1    0.00 
 184   18:00   0.00   83.6    27    5.8   252     8.7   850.1    0.00 
 184   18:10   0.00   82.0    29    5.7   243     7.5   850.1    0.00 
 184   18:20   0.00   81.8    29    5.8   242     8.0   850.0    0.00 
 184   18:30   0.00   80.5    30    5.6   248     6.9   850.0    0.00 
 184   18:40   0.00   79.6    32    5.1   243     6.3   850.0    0.00 
 184   18:50   0.00   78.1    34    5.0   245     5.7   850.0    0.00 
 184   19:00   0.00   78.4    31    5.1   253     5.7   850.1    0.00 
 184   19:10   0.00   79.8    27    4.9   244     5.3   850.1    0.00 
 184   19:20   0.00   79.0    30    5.3   238     5.7   850.2    0.00 
 184   19:30   0.00   74.6    37    5.8   242     6.4   850.3    0.00 
 184   19:40   0.00   72.1    40    5.7   233     6.6   850.4    0.00 
 184   19:50   0.00   70.1    45    5.5   226     6.2   850.4    0.00 
 184   20:00   0.00   68.1    47    5.7   224     6.9   850.6    0.00 
 184   20:10   0.00   68.8    44    6.0   225     7.1   850.7    0.00 
 184   20:20   0.00   67.9    46    6.5   214     8.0   850.9    0.00 
 184   20:30   0.00   70.3    37    7.8   221    10.4   851.0    0.00 
 184   20:40   0.00   75.4    28    7.4   238    11.7   851.1    0.00 
 184   20:50   0.00   73.1    32    5.7   238     7.5   851.1    0.00 
 184   21:00   0.00   70.8    37    5.9   251     7.2   851.2    0.00 
 184   21:10   0.00   69.7    38    5.6   243     6.8   851.2    0.00 
 184   21:20   0.00   69.9    37    5.6   247     6.5   851.3    0.00 
 184   21:30   0.00   69.2    39    5.2   245     6.1   851.3    0.00 
 184   21:40   0.00   69.5    39    5.1   247     6.7   851.2    0.00 
 184   21:50   0.00   68.8    42    4.8   254     6.0   851.2    0.00 
 184   22:00   0.00   68.7    44    4.9   257     5.8   851.2    0.00 
 184   22:10   0.00   67.5    48    4.6   270     5.7   851.2    0.00 
 184   22:20   0.00   67.9    45    1.4   140     4.1   851.2    0.00 
 184   22:30   0.00   70.7    35    0.9    26     3.3   851.2    0.00 
 184   22:40   0.00   71.5    33    0.6   360     3.2   851.2    0.00 
 184   22:50   0.00   71.6    38    1.4   287     4.0   851.2    0.00 
 184   23:00   0.00   69.0    46    2.2    89     4.3   851.2    0.00 
 184   23:10   0.00   71.9    34    1.1    82     2.7   851.2    0.00 
 184   23:20   0.00   71.4    38    0.0    73     1.5   851.3    0.00 
 184   23:30   0.00   68.7    50    2.1   247     4.7   851.4    0.00 
 184   23:40   0.00   65.8    57    1.3   241     4.7   851.4    0.00 
 184   23:50   0.00   65.8    62    1.2   289     4.5   851.3    0.00 
 185    0:00   0.00   67.4    46    3.6   268     5.6   851.4    0.00 
 185    0:10   0.00   68.9    46    1.9   249     3.9   851.4    0.00 
 185    0:20   0.00   67.2    55    0.0     0     0.0   851.3    0.00 
 185    0:30   0.00   67.8    49    0.0     0     0.0   851.3    0.00 
 185    0:40   0.00   68.1    52    0.0     0     0.0   851.3    0.00 
 185    0:50   0.00   68.0    53    0.0     0     0.0   851.4    0.00 
 185    1:00   0.00   67.8    52    0.0     0     0.0   851.3    0.00 
 185    1:10   0.00   69.4    43    2.3   209     3.9   851.3    0.00 
 185    1:20   0.00   68.2    54    1.7   180     3.3   851.3    0.00 
 185    1:30   0.00   67.5    54    2.8   141     3.9   851.4    0.00 
 185    1:40   0.00   68.3    47    1.0   146     2.6   851.4    0.00 
 185    1:50   0.00   68.3    50    0.0   147     0.4   851.5    0.00 
 185    2:00   0.00   67.8    53    0.5   174     3.2   851.5    0.00 
 185    2:10   0.00   68.5    44    2.1   260     5.5   851.6    0.00 
 185    2:20   0.00   66.5    60    2.7   264     5.2   851.5    0.00 
 185    2:30   0.00   67.0    54    3.1   180     5.0   851.4    0.00 
 185    2:40   0.00   67.5    46    5.3   186     6.9   851.3    0.00 
 185    2:50   0.00   69.3    39    4.6   173     7.7   851.3    0.00 
 185    3:00   0.00   69.0    42    0.9   119     3.1   851.4    0.00 
 185    3:10   0.00   67.7    46    2.6   193     5.6   851.4    0.00 
 185    3:20   0.00   64.4    55    4.2   233     6.7   851.4    0.00 
 185    3:30   0.00   66.0    51    2.5   224     5.1   851.3    0.00 
 185    3:40   0.00   68.1    43    2.5   334     6.0   851.3    0.00 
 185    3:50   0.00   69.8    37    2.4   327     6.8   851.3    0.00 
 185    4:00   0.00   72.7    28    3.2   312     9.5   851.3    0.00 
 185    4:10   0.00   75.9    21    3.1   244     6.7   851.3    0.00 
 185    4:20   0.00   74.3    26    2.8   199    11.2   851.5    0.00 
 185    4:30   0.00   70.9    31    5.3    51     9.8   851.8    0.00 
 185    4:40   0.00   71.3    30    3.1    23     6.5   851.8    0.00 
 185    4:50   0.00   74.7    21    2.1   208     8.2   851.7    0.00 
 185    5:00   0.00   76.5    22    3.4   238     6.5   851.7    0.00 
 185    5:10   0.00   75.6    22    5.0   244     8.2   851.8    0.00 
 185    5:20   0.00   76.8    21    3.0   223     7.7   851.8    0.00 
 185    5:30   0.00   72.3    29    4.1   275     8.8   851.9    0.00 
 185    5:40   0.00   69.1    36    4.5   258     6.9   852.0    0.00 
 185    5:50   0.00   69.8    32    2.2    81     6.1   852.1    0.00 
 185    6:00   0.00   70.2    35    3.3   142     8.5   852.3    0.00 
 185    6:10   0.00   68.5    39    3.3    96     7.4   852.5    0.00 
 185    6:20   0.00   68.9    39    4.4   134     6.5   852.6    0.00 
 185    6:30   0.00   70.4    35    3.2   116     4.7   852.6    0.00 
 185    6:40   0.00   71.2    36    1.1   167     4.6   852.8    0.00 
 185    6:50   0.00   72.1    38    3.2   182     7.7   852.8    0.00 
 185    7:00   0.00   72.9    40    4.1   190     6.6   852.8    0.00 
 185    7:10   0.00   72.9    49    5.3   212     7.2   852.8    0.00 
 185    7:20   0.00   74.3    52    3.2   203     5.1   852.9    0.00 
 185    7:30   0.00   76.2    42    1.1   113     3.7   853.1    0.00 
 185    7:40   0.00   76.2    46    2.4   193     5.8   853.2    0.00 
 185    7:50   0.00   75.2    46    8.3   208    19.9   853.2    0.00 
 185    8:00   0.00   78.6    29   14.8   180    23.6   853.2    0.00 
 185    8:10   0.00   79.3    28   11.2   186    19.5   853.3    0.00 
 185    8:20   0.00   77.4    29   14.0   185    20.8   853.4    0.00 
 185    8:30   0.00   77.1    29   11.7   185    18.3   853.5    0.00 
 185    8:40   0.00   77.4    29    9.6   186    14.5   853.6    0.00 
 185    8:50   0.00   76.8    29   10.8   191    15.1   853.5    0.00 
 185    9:00   0.00   76.3    27   13.4   186    19.1   853.5    0.00 
 185    9:10   0.00   77.4    28   11.4   192    18.3   853.6    0.00 
 185    9:20   0.00   74.3    36   13.7   199    21.1   853.7    0.00 
 185    9:30   0.00   73.6    41   11.1   185    16.8   853.9    0.00 
 185    9:40   0.00   73.6    42    8.8   165    13.7   854.0    0.00 
 185    9:50   0.00   72.4    52    6.9   158    11.0   854.1    0.00 
 185   10:00   0.00   72.1    52    6.1   159     9.5   854.3    0.00 
 185   10:10   0.00   72.9    46    9.7   174    20.0   854.7    0.00 
 185   10:20   0.00   72.0    45   12.6   185    19.9   855.0    0.00 
 185   10:30   0.00   71.2    48    6.6   200    10.7   855.3    0.00 
 185   10:40   0.00   69.4    60    7.1   221     9.6   855.4    0.00 
 185   10:50   0.00   69.6    64    5.5   214     8.5   855.3    0.00 
 185   11:00   0.00   70.9    62    7.0   248    11.0   855.0    0.00 
 185   11:10   0.00   71.6    58    4.9   259     8.8   855.0    0.00 
 185   11:20   0.00   72.9    58    4.6   238     8.2   855.0    0.00 
 185   11:30   0.00   74.8    52    6.5   222    12.0   855.1    0.00 
 185   11:40   0.00   74.1    56    4.3   215     7.6   855.1    0.00 
 185   11:50   0.00   72.5    61    3.4   232     6.8   855.0    0.00 
 185   12:00   0.00   73.7    52    1.3   196     4.5   854.9    0.00 
 185   12:10   0.00   75.4    44    4.4    71     7.2   854.9    0.00 
 185   12:20   0.00   75.0    43    2.9    82     5.8   854.8    0.00 
 185   12:30   0.00   75.4    43    2.4   106     4.5   854.7    0.00 
 185   12:40   0.00   76.0    43    1.3    88     4.5   854.5    0.00 
 185   12:50   0.00   75.8    44    1.9    79     5.2   854.3    0.00 
 185   13:00   0.00   75.6    44    2.7    69     5.7   854.1    0.00 
 185   13:10   0.00   75.6    42    3.0    78     7.2   854.2    0.00 
 185   13:20   0.00   75.6    43    2.5    95     4.1   854.1    0.00 
 185   13:30   0.00   76.7    42    0.4   104     1.8   854.1    0.00 
 185   13:40   0.00   77.7    41    1.2   226     3.2   853.9    0.00 
 185   13:50   0.00   77.3    44    2.4   236     4.2   853.8    0.00 
 185   14:00   0.00   78.9    38    0.8   271     2.9   853.6    0.00 
 185   14:10   0.00   79.9    36    2.3   257     4.4   853.4    0.00 
 185   14:20   0.00   79.6    37    2.2   286     4.5   853.1    0.00 
 185   14:30   0.00   80.9    32    1.2   274     3.5   853.0    0.00 
 185   14:40   0.00   83.3    29    0.5   214     3.1   852.9    0.00 
 185   14:50   0.00   83.6    30    1.7   156     3.6   852.7    0.00 

Return to Sand Spring Valley graphs page.


Western Regional Climate Center,wrcc@dri.edu